Time;durP1;ratioP1;P1;durP2;ratioP2;P2;SDS_P1;SDS_P2;PMS_P1;PMS_P2;Temp;Humidity;BMP_temperature;BMP_pressure;BME280_temperature;BME280_humidity;BME280_pressure;Samples;Min_cycle;Max_cycle;Signal;HPM_P1;HPM_P2
2022/05/29 00:00:18;;;;;;;8.40;1.93;;;;;;;7.89;88.89;100937.19;672678;29;1528;-78
2022/05/29 00:00:39;;;;;;;6.22;1.80;;;;;;;7.89;89.34;100932.00;672336;29;1536;-78
2022/05/29 00:00:59;;;;;;;4.90;1.70;;;;;;;7.89;88.89;100934.59;665737;29;1551;-78
2022/05/29 00:01:20;;;;;;;5.10;1.70;;;;;;;7.89;89.42;100934.59;668844;29;1808;-78
2022/05/29 00:01:40;;;;;;;5.88;1.70;;;;;;;7.88;89.59;100938.94;674559;29;1470;-78
2022/05/29 00:02:00;;;;;;;5.33;1.70;;;;;;;7.84;90.15;100938.03;679149;28;4328;-78
2022/05/29 00:02:21;;;;;;;5.93;1.73;;;;;;;7.84;89.37;100938.03;676210;29;1316;-77
2022/05/29 00:02:41;;;;;;;5.77;1.70;;;;;;;7.86;90.23;100942.38;676700;29;1252;-78
2022/05/29 00:03:02;;;;;;;5.72;1.60;;;;;;;7.82;90.11;100939.75;674107;29;1312;-78
2022/05/29 00:03:22;;;;;;;6.63;1.70;;;;;;;7.76;91.74;100942.28;677420;29;1297;-78
2022/05/29 00:03:43;;;;;;;7.22;1.73;;;;;;;7.73;91.51;100939.63;677183;29;1290;-78
2022/05/29 00:04:06;;;;;;;6.53;1.95;;;;;;;7.75;89.72;100937.06;674637;29;1974;-78
2022/05/29 00:04:26;;;;;;;5.07;1.80;;;;;;;7.76;89.52;100944.88;674555;29;1443;-78
2022/05/29 00:04:47;;;;;;;5.50;1.80;;;;;;;7.78;89.08;100935.38;671880;29;1528;-78
2022/05/29 00:05:10;;;;;;;4.87;1.83;;;;;;;7.76;89.21;100942.28;673618;29;4318;-78
2022/05/29 00:05:30;;;;;;;7.07;1.77;;;;;;;7.74;89.22;100938.78;672041;29;1451;-78
2022/05/29 00:05:51;;;;;;;5.07;1.50;;;;;;;7.70;91.08;100937.00;670925;29;1251;-78
2022/05/29 00:06:13;;;;;;;4.70;1.63;;;;;;;7.61;90.98;100936.91;673120;29;1414;-78
2022/05/29 00:06:43;;;;;;;5.25;1.77;;;;;;;7.56;91.01;100941.16;673070;29;1422;-78
2022/05/29 00:07:10;;;;;;;5.75;1.88;;;;;;;7.58;90.56;100932.53;675360;29;1332;-78
2022/05/29 00:07:31;;;;;;;5.00;1.70;;;;;;;7.60;90.82;100937.75;675074;29;1605;-78
2022/05/29 00:07:51;;;;;;;6.47;1.75;;;;;;;7.59;90.19;100936.03;677326;29;1966;-78
2022/05/29 00:08:14;;;;;;;7.27;1.80;;;;;;;7.57;90.30;100927.31;680091;28;4575;-78
2022/05/29 00:08:38;;;;;;;4.75;1.70;;;;;;;7.59;90.12;100936.03;680114;29;1355;-78
2022/05/29 00:08:58;;;;;;;4.82;1.70;;;;;;;7.59;89.95;100930.81;673924;29;1291;-78
2022/05/29 00:09:30;;;;;;;6.38;1.73;;;;;;;7.59;90.38;100933.41;674140;29;1720;-77
2022/05/29 00:09:54;;;;;;;5.30;2.20;;;;;;;7.57;91.34;100930.78;674653;29;1389;-78
2022/05/29 00:10:16;;;;;;;4.90;1.83;;;;;;;7.62;90.02;100926.50;671299;29;1637;-78
2022/05/29 00:10:39;;;;;;;4.68;1.70;;;;;;;7.61;90.23;100929.94;668144;29;1556;-77
2022/05/29 00:11:00;;;;;;;5.05;1.90;;;;;;;7.63;90.71;100922.19;674680;29;4519;-78
2022/05/29 00:11:21;;;;;;;5.45;1.90;;;;;;;7.61;90.93;100931.69;674687;29;1665;-78
2022/05/29 00:11:42;;;;;;;5.82;1.92;;;;;;;7.62;90.53;100926.50;674870;29;1376;-78
2022/05/29 00:12:04;;;;;;;4.63;1.63;;;;;;;7.61;90.51;100934.28;675996;29;1670;-78
2022/05/29 00:12:25;;;;;;;6.80;1.80;;;;;;;7.59;90.29;100928.22;680180;29;1442;-78
2022/05/29 00:12:45;;;;;;;5.30;1.90;;;;;;;7.58;90.19;100929.06;680685;28;1658;-79
2022/05/29 00:13:05;;;;;;;3.40;1.53;;;;;;;7.55;90.88;100935.09;679148;28;1448;-78
2022/05/29 00:13:27;;;;;;;5.13;1.80;;;;;;;7.50;91.87;100931.56;678259;29;1375;-78
2022/05/29 00:13:47;;;;;;;5.85;1.83;;;;;;;7.43;91.96;100937.53;671909;29;1194;-78
2022/05/29 00:14:07;;;;;;;6.77;2.10;;;;;;;7.40;91.57;100930.56;671499;29;5049;-78
2022/05/29 00:14:29;;;;;;;7.53;2.28;;;;;;;7.41;90.94;100934.06;672057;29;1307;-78
2022/05/29 00:14:49;;;;;;;6.25;2.10;;;;;;;7.41;91.84;100932.31;669297;29;1219;-78
2022/05/29 00:15:13;;;;;;;5.22;1.83;;;;;;;7.41;91.81;100934.94;675826;29;1395;-78
2022/05/29 00:15:34;;;;;;;5.40;1.70;;;;;;;7.40;91.64;100934.91;675084;29;1459;-78
2022/05/29 00:15:55;;;;;;;5.77;2.07;;;;;;;7.38;91.36;100937.50;673583;29;2168;-78
2022/05/29 00:16:15;;;;;;;5.30;1.92;;;;;;;7.42;90.24;100931.47;674446;29;1376;-78
2022/05/29 00:16:35;;;;;;;5.50;1.80;;;;;;;7.45;90.63;100931.50;671394;29;1524;-78
2022/05/29 00:16:57;;;;;;;6.43;1.70;;;;;;;7.45;92.55;100933.25;674495;29;4565;-78
2022/05/29 00:17:19;;;;;;;6.53;1.80;;;;;;;7.42;92.66;100928.00;674525;29;1469;-78
2022/05/29 00:17:39;;;;;;;6.28;1.90;;;;;;;7.31;93.35;100941.75;674984;29;1028;-78
2022/05/29 00:17:59;;;;;;;5.28;1.90;;;;;;;7.21;93.56;100932.06;677897;29;1151;-78
2022/05/29 00:18:20;;;;;;;6.53;2.00;;;;;;;7.18;93.71;100928.56;677536;29;1665;-78
2022/05/29 00:18:42;;;;;;;8.25;2.22;;;;;;;7.18;92.80;100934.63;672664;29;1904;-78
2022/05/29 00:19:02;;;;;;;6.28;2.10;;;;;;;7.25;92.90;100936.44;672592;29;1503;-78
2022/05/29 00:19:23;;;;;;;5.13;2.00;;;;;;;7.31;92.61;100935.66;675422;29;1609;-78
2022/05/29 00:19:44;;;;;;;4.22;1.85;;;;;;;7.32;93.08;100933.09;675779;29;1801;-78
2022/05/29 00:20:06;;;;;;;4.70;2.17;;;;;;;7.28;93.86;100935.63;678284;28;4423;-78
2022/05/29 00:20:26;;;;;;;5.03;2.17;;;;;;;7.20;93.82;100932.03;678262;29;1536;-78
2022/05/29 00:20:53;;;;;;;6.13;2.20;;;;;;;7.19;94.17;100930.31;674323;29;1139;-77
2022/05/29 00:21:13;;;;;;;5.13;2.10;;;;;;;7.16;94.76;100926.81;674543;29;1499;-78
2022/05/29 00:21:36;;;;;;;7.25;2.20;;;;;;;7.20;93.53;100932.03;673650;29;1175;-78
2022/05/29 00:21:56;;;;;;;7.18;2.20;;;;;;;7.22;93.67;100935.53;674133;29;1269;-78
2022/05/29 00:22:19;;;;;;;6.60;2.03;;;;;;;7.21;93.28;100936.41;673595;29;1802;-78
2022/05/29 00:22:40;;;;;;;6.82;1.98;;;;;;;7.21;93.00;100928.59;671954;29;1481;-78
2022/05/29 00:23:00;;;;;;;5.10;1.87;;;;;;;7.23;92.74;100937.31;669613;29;4356;-78
2022/05/29 00:23:21;;;;;;;5.75;2.00;;;;;;;7.22;92.41;100932.94;673472;29;1183;-78
2022/05/29 00:23:43;;;;;;;6.43;2.10;;;;;;;7.25;93.09;100935.59;674455;29;1906;-78
2022/05/29 00:24:03;;;;;;;7.35;2.05;;;;;;;7.22;93.77;100938.16;675735;29;1415;-78
2022/05/29 00:24:24;;;;;;;7.50;2.03;;;;;;;7.24;93.42;100937.31;674289;29;1439;-78
2022/05/29 00:24:46;;;;;;;6.47;2.20;;;;;;;7.26;92.90;100932.13;675518;29;1980;-78
2022/05/29 00:25:09;;;;;;;6.18;2.13;;;;;;;7.28;92.66;100935.63;674950;29;1670;-78
2022/05/29 00:25:29;;;;;;;4.93;1.92;;;;;;;7.30;92.84;100933.94;672596;29;1493;-78
2022/05/29 00:25:52;;;;;;;4.95;2.00;;;;;;;7.31;92.11;100939.13;673547;29;1461;-78
2022/05/29 00:26:13;;;;;;;4.50;2.00;;;;;;;7.33;92.09;100931.34;672624;29;4406;-78
2022/05/29 00:26:34;;;;;;;6.80;2.17;;;;;;;7.29;92.54;100933.03;673269;29;1708;-78
2022/05/29 00:26:54;;;;;;;5.60;1.97;;;;;;;7.30;92.21;100936.53;672295;29;1232;-78
2022/05/29 00:27:16;;;;;;;6.13;1.90;;;;;;;7.29;92.51;100938.22;672736;29;1968;-78
2022/05/29 00:27:37;;;;;;;6.10;2.03;;;;;;;7.23;92.51;100926.91;672086;29;1746;-78
2022/05/29 00:27:58;;;;;;;5.72;2.10;;;;;;;7.22;93.05;100938.16;677889;29;1897;-78
2022/05/29 00:28:19;;;;;;;6.22;2.28;;;;;;;7.23;92.81;100932.97;677485;29;1366;-78
2022/05/29 00:28:40;;;;;;;5.30;1.98;;;;;;;7.25;93.14;100935.59;677840;29;924;-79
2022/05/29 00:29:00;;;;;;;5.47;2.00;;;;;;;7.23;93.57;100935.56;677730;29;4313;-78
2022/05/29 00:29:21;;;;;;;5.07;1.80;;;;;;;7.23;93.06;100932.09;677054;29;1198;-78
2022/05/29 00:29:43;;;;;;;4.97;1.80;;;;;;;7.20;92.56;100932.03;677777;29;1443;-78
2022/05/29 00:30:08;;;;;;;5.07;1.70;;;;;;;7.18;92.62;100933.75;677406;29;1757;-78
2022/05/29 00:30:28;;;;;;;5.15;1.88;;;;;;;7.17;94.29;100935.47;677694;29;1197;-78
2022/05/29 00:30:50;;;;;;;5.95;1.92;;;;;;;7.08;94.41;100933.63;677290;29;1714;-78
2022/05/29 00:31:11;;;;;;;7.13;2.03;;;;;;;7.04;94.80;100926.63;679521;29;1493;-78
2022/05/29 00:31:32;;;;;;;5.75;2.17;;;;;;;6.97;94.63;100933.47;677944;29;1635;-78
2022/05/29 00:31:53;;;;;;;5.20;2.00;;;;;;;6.86;94.89;100929.84;675585;29;1419;-78
2022/05/29 00:32:14;;;;;;;6.57;2.00;;;;;;;6.80;95.64;100933.22;676057;29;4299;-79
2022/05/29 00:32:34;;;;;;;5.23;2.03;;;;;;;6.77;95.26;100925.41;674414;29;2360;-78
2022/05/29 00:32:55;;;;;;;6.33;2.00;;;;;;;6.77;94.68;100932.28;675009;29;1335;-78
2022/05/29 00:33:15;;;;;;;5.73;2.00;;;;;;;6.81;95.22;100927.19;673046;29;1475;-78
2022/05/29 00:33:35;;;;;;;5.15;2.17;;;;;;;6.88;94.17;100929.88;673282;29;1045;-79
2022/05/29 00:33:56;;;;;;;5.53;2.37;;;;;;;6.89;94.79;100931.63;675514;29;1251;-78
2022/05/29 00:34:19;;;;;;;5.03;2.00;;;;;;;6.88;95.08;100924.66;672818;29;1405;-78
2022/05/29 00:34:39;;;;;;;4.68;1.98;;;;;;;6.90;94.95;100933.38;673587;29;1466;-78
2022/05/29 00:34:59;;;;;;;6.28;2.00;;;;;;;6.92;95.61;100929.06;674664;29;4521;-77
2022/05/29 00:35:20;;;;;;;4.90;2.00;;;;;;;6.93;94.63;100928.22;675588;29;1354;-78
2022/05/29 00:35:41;;;;;;;5.40;1.88;;;;;;;6.92;95.56;100927.34;675026;29;1344;-78
2022/05/29 00:36:02;;;;;;;5.05;1.83;;;;;;;6.90;95.96;100925.56;673026;29;1463;-78
2022/05/29 00:36:22;;;;;;;5.07;1.95;;;;;;;6.91;96.38;100927.28;672139;29;1720;-78
2022/05/29 00:36:44;;;;;;;6.40;2.30;;;;;;;6.90;96.80;100930.78;672416;29;1499;-78
2022/05/29 00:37:06;;;;;;;5.65;2.30;;;;;;;6.90;95.80;100925.56;672854;29;1649;-79
2022/05/29 00:37:29;;;;;;;6.10;2.03;;;;;;;6.93;95.53;100921.28;672496;29;1571;-79
2022/05/29 00:37:49;;;;;;;5.50;2.10;;;;;;;6.92;95.77;100924.75;673294;29;1321;-79
2022/05/29 00:38:12;;;;;;;5.07;2.00;;;;;;;6.92;95.34;100921.25;675464;29;4494;-79
2022/05/29 00:38:38;;;;;;;6.72;2.60;;;;;;;6.90;95.31;100922.97;675913;29;1222;-78
2022/05/29 00:38:58;;;;;;;5.13;2.30;;;;;;;6.89;95.38;100923.81;675410;29;1281;-78
2022/05/29 00:39:19;;;;;;;6.90;2.13;;;;;;;6.79;97.22;100928.88;674885;29;1379;-79
2022/05/29 00:39:41;;;;;;;7.15;2.05;;;;;;;6.77;96.41;100925.41;675557;29;1234;-79
2022/05/29 00:40:02;;;;;;;6.05;2.00;;;;;;;6.79;95.87;100926.28;675682;29;1298;-78
2022/05/29 00:40:47;;;;;;;6.05;2.10;;;;;;;6.80;96.22;100916.78;679590;29;1548;-78
2022/05/29 00:41:17;;;;;;;6.65;2.20;;;;;;;6.80;95.61;100919.38;677703;28;4334;-78
2022/05/29 00:41:38;;;;;;;5.95;2.45;;;;;;;6.80;95.83;100925.44;680245;29;1642;-78
2022/05/29 00:41:59;;;;;;;4.35;1.90;;;;;;;6.84;95.31;100921.16;679498;28;1625;-78
2022/05/29 00:42:23;;;;;;;5.75;2.00;;;;;;;6.86;94.71;100921.19;678366;29;1457;-78
2022/05/29 00:42:43;;;;;;;5.57;2.20;;;;;;;6.89;95.07;100916.88;676134;29;1324;-78
2022/05/29 00:43:03;;;;;;;5.80;1.83;;;;;;;6.89;95.50;100921.22;677387;29;1500;-78
2022/05/29 00:43:24;;;;;;;5.97;1.80;;;;;;;6.89;94.79;100916.03;675188;29;1296;-78
2022/05/29 00:44:03;;;;;;;5.33;2.03;;;;;;;6.92;94.16;100922.16;676279;29;1285;-78
2022/05/29 00:44:24;;;;;;;5.30;2.15;;;;;;;6.91;95.59;100915.19;672305;29;4921;-78
2022/05/29 00:44:44;;;;;;;5.57;2.20;;;;;;;6.87;95.47;100915.09;672152;29;1365;-79
2022/05/29 00:45:15;;;;;;;6.13;2.20;;;;;;;6.84;95.76;100913.38;669701;29;1516;-79
2022/05/29 00:46:02;;;;;;;6.05;2.10;;;;;;;6.79;96.03;100923.69;677215;29;1924;-78
2022/05/29 00:46:23;;;;;;;4.28;2.15;;;;;;;6.77;95.60;100914.09;674836;29;1759;-78
2022/05/29 00:47:06;;;;;;;4.93;2.25;;;;;;;6.81;95.81;100918.50;680020;28;1674;-78
2022/05/29 00:47:27;;;;;;;4.57;2.13;;;;;;;6.77;96.81;100912.41;672337;29;5777;-78
2022/05/29 00:47:48;;;;;;;5.00;2.10;;;;;;;6.81;95.88;100915.91;676772;29;1517;-78
2022/05/29 00:48:14;;;;;;;4.82;2.10;;;;;;;6.84;96.18;100918.56;676001;29;1911;-79
2022/05/29 00:48:34;;;;;;;5.30;2.10;;;;;;;6.87;96.07;100913.41;673392;29;1776;-78
2022/05/29 00:48:55;;;;;;;5.23;2.07;;;;;;;6.87;95.26;100912.50;676237;29;1187;-79
2022/05/29 00:49:17;;;;;;;4.70;1.90;;;;;;;6.88;95.25;100909.06;676528;29;1490;-78
2022/05/29 00:49:39;;;;;;;5.13;2.10;;;;;;;6.84;95.74;100912.47;677255;29;1677;-78
2022/05/29 00:50:00;;;;;;;6.18;2.40;;;;;;;6.81;96.69;100918.50;679339;28;4328;-78
2022/05/29 00:50:21;;;;;;;5.60;2.30;;;;;;;6.76;97.38;100915.84;678502;29;1269;-78
2022/05/29 00:50:43;;;;;;;6.57;2.20;;;;;;;6.79;96.07;100915.03;674809;29;1545;-78
2022/05/29 00:51:10;;;;;;;5.72;2.10;;;;;;;6.78;95.52;100919.34;675307;29;1649;-78
2022/05/29 00:51:31;;;;;;;6.35;1.90;;;;;;;6.80;95.81;100911.56;672525;29;1459;-79
2022/05/29 00:51:58;;;;;;;6.18;2.22;;;;;;;6.78;96.05;100914.16;672222;29;1386;-78
2022/05/29 00:52:24;;;;;;;5.82;2.13;;;;;;;6.75;96.80;100914.09;674211;29;1196;-78
2022/05/29 00:52:45;;;;;;;5.43;2.10;;;;;;;6.68;97.71;100916.59;673545;29;1328;-79
2022/05/29 00:53:05;;;;;;;6.28;2.10;;;;;;;6.61;97.93;100910.41;673278;29;4508;-78
2022/05/29 00:53:28;;;;;;;5.17;2.10;;;;;;;6.56;98.01;100914.66;672958;29;1387;-78
2022/05/29 00:53:49;;;;;;;6.45;2.22;;;;;;;6.53;98.72;100910.28;674722;29;1492;-78
2022/05/29 00:54:12;;;;;;;5.30;2.33;;;;;;;6.52;98.17;100920.66;675584;29;1230;-78
2022/05/29 00:54:42;;;;;;;4.60;2.00;;;;;;;6.54;97.60;100911.19;674941;29;1558;-78
2022/05/29 00:55:12;;;;;;;5.68;2.20;;;;;;;6.57;97.03;100908.63;677135;29;1857;-78
2022/05/29 00:55:32;;;;;;;5.57;2.10;;;;;;;6.58;97.64;100912.97;671068;29;2042;-78
2022/05/29 00:56:12;;;;;;;4.57;2.07;;;;;;;6.59;97.46;100913.00;673317;29;873;-78
2022/05/29 00:56:35;;;;;;;5.00;2.45;;;;;;;6.60;96.81;100912.13;670326;29;6413;-78
2022/05/29 00:56:58;;;;;;;5.68;2.63;;;;;;;6.62;96.30;100904.38;672133;29;2112;-79
2022/05/29 00:57:33;;;;;;;5.78;2.08;;;;;;;6.61;97.70;100913.03;671331;29;1193;-78
2022/05/29 00:58:00;;;;;;;7.18;2.40;;;;;;;6.51;98.54;100913.69;669417;29;991;-78
2022/05/29 00:58:22;;;;;;;6.18;2.35;;;;;;;6.41;99.28;100918.78;669537;29;1601;-78
2022/05/29 00:58:44;;;;;;;6.63;2.40;;;;;;;6.35;99.23;100907.41;671837;29;1371;-79
2022/05/29 00:59:09;;;;;;;5.53;2.20;;;;;;;6.35;97.99;100908.25;669553;29;4321;-78
2022/05/29 00:59:32;;;;;;;5.55;2.40;;;;;;;6.38;97.95;100910.91;674247;29;1478;-78
2022/05/29 00:59:56;;;;;;;5.60;2.30;;;;;;;6.40;98.14;100910.97;673939;29;1410;-78
2022/05/29 01:00:23;;;;;;;6.30;2.35;;;;;;;6.40;98.73;100914.41;674729;29;1585;-78
2022/05/29 01:00:43;;;;;;;4.93;2.30;;;;;;;6.45;97.85;100915.38;674687;29;1398;-79
2022/05/29 01:01:04;;;;;;;4.60;2.00;;;;;;;6.47;98.38;100913.66;674785;29;1812;-79
2022/05/29 01:01:25;;;;;;;6.55;2.15;;;;;;;6.51;98.71;100912.00;674834;29;1486;-79
2022/05/29 01:01:46;;;;;;;5.93;2.10;;;;;;;6.52;97.76;100907.66;676540;29;1727;-78
2022/05/29 01:02:06;;;;;;;5.13;1.90;;;;;;;6.57;97.04;100908.63;678534;29;4318;-78
2022/05/29 01:02:27;;;;;;;4.13;1.95;;;;;;;6.58;97.89;100906.03;677476;29;1611;-78
2022/05/29 01:02:47;;;;;;;5.37;2.03;;;;;;;6.63;96.93;100907.00;678311;29;1106;-78
2022/05/29 01:03:08;;;;;;;5.55;2.10;;;;;;;6.66;96.51;100908.78;674952;29;1617;-78
2022/05/29 01:03:28;;;;;;;7.00;1.97;;;;;;;6.68;96.02;100909.66;675769;29;1391;-78
2022/05/29 01:03:49;;;;;;;5.23;2.03;;;;;;;6.69;94.77;100905.31;674890;29;1810;-78
2022/05/29 01:04:10;;;;;;;5.28;2.30;;;;;;;6.69;96.41;100908.81;675245;29;1399;-78
2022/05/29 01:04:33;;;;;;;5.28;2.30;;;;;;;6.71;96.23;100907.09;678583;29;1824;-78
2022/05/29 01:04:55;;;;;;;5.53;2.25;;;;;;;6.69;96.18;100902.72;672679;29;1440;-79
2022/05/29 01:05:18;;;;;;;5.07;2.00;;;;;;;6.66;97.07;100911.38;675780;29;4765;-78
2022/05/29 01:05:39;;;;;;;5.30;2.15;;;;;;;6.64;97.21;100905.25;674752;29;1423;-78
2022/05/29 01:05:59;;;;;;;5.85;2.22;;;;;;;6.61;97.31;100907.81;672980;29;1618;-78
2022/05/29 01:06:20;;;;;;;6.03;2.10;;;;;;;6.63;96.69;100903.50;672283;29;2055;-78
2022/05/29 01:06:41;;;;;;;6.03;2.00;;;;;;;6.63;96.94;100904.41;671742;29;1462;-78
2022/05/29 01:07:06;;;;;;;7.20;2.20;;;;;;;6.62;96.90;100912.19;671391;29;1564;-78
2022/05/29 01:07:29;;;;;;;5.72;2.00;;;;;;;6.64;96.68;100905.25;673449;29;1484;-79
2022/05/29 01:07:54;;;;;;;4.82;1.80;;;;;;;6.63;96.92;100903.50;678008;28;1237;-79
2022/05/29 01:08:18;;;;;;;4.80;2.03;;;;;;;6.67;96.85;100904.44;674664;28;4685;-79
2022/05/29 01:08:39;;;;;;;5.95;2.10;;;;;;;6.70;96.82;100909.69;671483;29;1645;-78
2022/05/29 01:09:00;;;;;;;4.67;1.90;;;;;;;6.74;95.70;100901.97;670295;29;1273;-78
2022/05/29 01:09:20;;;;;;;4.97;1.95;;;;;;;6.76;95.66;100910.66;667229;29;1711;-78
2022/05/29 01:09:44;;;;;;;6.83;2.10;;;;;;;6.79;94.66;100909.81;667170;29;1670;-78
2022/05/29 01:10:06;;;;;;;5.97;2.10;;;;;;;6.79;95.75;100904.63;670092;29;1501;-78
2022/05/29 01:10:44;;;;;;;6.43;2.20;;;;;;;6.78;96.52;100903.75;672241;29;1177;-78
2022/05/29 01:11:16;;;;;;;6.70;2.25;;;;;;;6.80;96.59;100899.44;675324;29;4282;-80
2022/05/29 01:12:14;;;;;;;5.53;2.17;;;;;;;6.78;96.58;100901.16;676161;29;1660;-78
2022/05/29 01:12:43;;;;;;;4.75;2.05;;;;;;;6.81;94.94;100902.91;677277;29;1300;-78
2022/05/29 01:13:53;;;;;;;5.93;2.05;;;;;;;6.79;94.89;100904.63;677196;29;1423;-78
2022/05/29 01:14:32;;;;;;;6.03;2.03;;;;;;;6.81;94.60;100897.72;668332;29;4329;-78
2022/05/29 01:15:06;;;;;;;5.65;2.00;;;;;;;6.79;94.89;100896.81;677153;29;1658;-79
2022/05/29 01:15:50;;;;;;;4.32;1.95;;;;;;;6.78;95.78;100898.56;674699;29;1459;-78
2022/05/29 01:16:37;;;;;;;6.47;2.13;;;;;;;6.78;96.50;100898.56;673354;29;1135;-78
2022/05/29 01:17:21;;;;;;;5.10;2.30;;;;;;;6.82;96.17;100896.88;673287;29;4327;-78
2022/05/29 01:17:45;;;;;;;6.07;2.20;;;;;;;6.84;95.11;100894.28;677236;29;964;-78
2022/05/29 01:18:32;;;;;;;5.20;2.05;;;;;;;6.80;96.21;100898.59;674730;29;1186;-78
2022/05/29 01:19:10;;;;;;;5.40;1.88;;;;;;;6.80;96.12;100891.66;671648;29;1655;-79
2022/05/29 01:19:51;;;;;;;4.03;2.03;;;;;;;6.85;94.99;100893.44;673147;29;924;-78
2022/05/29 01:20:45;;;;;;;4.00;1.92;;;;;;;6.76;96.58;100887.25;678228;29;4489;-78
2022/05/29 01:21:31;;;;;;;5.50;2.05;;;;;;;6.76;97.39;100896.78;677804;29;1279;-78
2022/05/29 01:22:05;;;;;;;6.97;2.30;;;;;;;6.69;98.24;100892.31;678565;29;1476;-78
2022/05/29 01:22:34;;;;;;;6.18;2.20;;;;;;;6.68;96.71;100890.59;671455;29;1819;-78
2022/05/29 01:23:46;;;;;;;4.80;2.20;;;;;;;6.74;95.74;100891.56;671206;29;1286;-78
2022/05/29 01:24:15;;;;;;;7.05;2.30;;;;;;;6.69;97.78;100889.72;671095;29;6689;-78
2022/05/29 01:25:00;;;;;;;5.93;2.20;;;;;;;6.66;99.33;100895.78;671996;29;1158;-78
2022/05/29 01:25:38;;;;;;;5.88;2.20;;;;;;;6.62;99.28;100896.59;676185;29;1597;-78
2022/05/29 01:26:10;;;;;;;5.70;2.30;;;;;;;6.57;99.87;100898.22;671552;29;1234;-78
2022/05/29 01:26:58;;;;;;;4.97;2.15;;;;;;;6.50;100.00;100896.41;672195;29;918;-79
2022/05/29 01:27:33;;;;;;;6.32;2.30;;;;;;;6.47;100.00;100900.69;672006;29;1330;-78
2022/05/29 01:28:18;;;;;;;4.90;2.10;;;;;;;6.42;100.00;100901.47;674072;29;1994;-79
2022/05/29 01:28:44;;;;;;;5.65;2.40;;;;;;;6.35;100.00;100892.69;675301;29;1040;-78
2022/05/29 01:29:14;;;;;;;4.88;2.35;;;;;;;6.32;100.00;100889.19;673802;29;4291;-77
2022/05/29 01:29:53;;;;;;;5.78;2.38;;;;;;;6.36;100.00;100897.03;672674;29;1630;-78
2022/05/29 01:30:21;;;;;;;5.68;2.35;;;;;;;6.37;100.00;100898.78;675853;29;1299;-78
2022/05/29 01:30:49;;;;;;;4.88;2.10;;;;;;;6.37;100.00;100898.78;674984;29;1461;-79
2022/05/29 01:31:18;;;;;;;4.72;2.40;;;;;;;6.31;100.00;100896.09;677483;29;1219;-78
2022/05/29 01:31:41;;;;;;;4.93;2.25;;;;;;;6.34;100.00;100896.16;677411;29;1114;-78
2022/05/29 01:32:11;;;;;;;5.65;2.30;;;;;;;6.37;100.00;100891.00;676257;29;4296;-78
2022/05/29 01:33:08;;;;;;;6.80;2.30;;;;;;;6.39;100.00;100898.81;674963;29;1129;-78
2022/05/29 01:33:53;;;;;;;5.03;2.08;;;;;;;6.42;100.00;100891.94;674678;29;1189;-79
2022/05/29 01:34:39;;;;;;;6.28;2.30;;;;;;;6.43;100.00;100888.50;674912;29;1360;-78
2022/05/29 01:35:08;;;;;;;6.22;2.30;;;;;;;6.44;100.00;100897.19;669600;29;4500;-79
2022/05/29 01:35:33;;;;;;;5.63;2.40;;;;;;;6.47;100.00;100892.88;675245;29;2083;-78
2022/05/29 01:36:02;;;;;;;5.78;2.60;;;;;;;6.50;100.00;100896.41;667317;29;1414;-78
2022/05/29 01:37:00;;;;;;;6.32;2.50;;;;;;;6.52;99.16;100887.78;669855;29;1271;-78
2022/05/29 01:37:28;;;;;;;4.43;2.38;;;;;;;6.56;99.70;100896.47;673918;29;1425;-78
2022/05/29 01:38:07;;;;;;;6.43;2.40;;;;;;;6.56;99.99;100888.69;678449;28;1317;-78
2022/05/29 01:38:41;;;;;;;6.60;2.40;;;;;;;6.59;99.72;100888.72;679808;29;4935;-78
2022/05/29 01:39:23;;;;;;;5.22;2.30;;;;;;;6.63;99.14;100900.91;681028;29;998;-78
2022/05/29 01:39:55;;;;;;;4.63;2.30;;;;;;;6.64;99.10;100889.69;677699;29;1870;-78
2022/05/29 01:40:24;;;;;;;6.53;3.13;;;;;;;6.66;99.24;100890.59;678373;29;1531;-78
2022/05/29 01:40:57;;;;;;;5.18;2.47;;;;;;;6.68;99.31;100893.22;677802;29;1246;-78
2022/05/29 01:41:34;;;;;;;5.45;2.38;;;;;;;6.64;100.00;100893.13;674766;29;5980;-79
2022/05/29 01:42:04;;;;;;;5.32;2.40;;;;;;;6.65;100.00;100892.28;675037;29;1650;-78
2022/05/29 01:42:49;;;;;;;5.50;2.42;;;;;;;6.68;98.81;100888.88;675353;29;1505;-78
2022/05/29 01:43:15;;;;;;;5.22;2.33;;;;;;;6.73;99.29;100887.22;675275;29;1279;-78
2022/05/29 01:43:51;;;;;;;6.53;2.60;;;;;;;6.74;99.77;100888.09;675814;29;1151;-78
2022/05/29 01:44:22;;;;;;;6.82;2.20;;;;;;;6.75;98.72;100890.69;676572;29;4322;-78
2022/05/29 01:44:50;;;;;;;5.50;2.20;;;;;;;6.70;99.05;100888.88;677107;29;2142;-78
2022/05/29 01:45:53;;;;;;;6.45;2.92;;;;;;;6.59;100.00;100893.91;678716;28;1543;-78
2022/05/29 01:46:20;;;;;;;6.55;2.17;;;;;;;6.42;100.00;100889.34;681234;28;1986;-79
2022/05/29 01:46:45;;;;;;;5.15;2.60;;;;;;;6.40;100.00;100892.78;678531;29;1859;-78
2022/05/29 01:47:27;;;;;;;6.20;2.40;;;;;;;6.32;100.00;100897.84;675362;29;4347;-78
2022/05/29 01:48:08;;;;;;;6.15;2.60;;;;;;;6.28;100.00;100896.91;669840;29;1550;-78
2022/05/29 01:48:37;;;;;;;5.88;2.58;;;;;;;6.26;100.00;100898.63;670100;29;1442;-78
2022/05/29 01:49:19;;;;;;;6.75;2.60;;;;;;;6.22;100.00;100888.16;671267;29;1512;-78
2022/05/29 01:49:48;;;;;;;6.32;2.55;;;;;;;6.21;100.00;100899.38;674692;29;1365;-78
2022/05/29 01:50:17;;;;;;;5.45;2.70;;;;;;;6.19;100.00;100894.16;676303;29;4314;-78
2022/05/29 01:50:44;;;;;;;6.88;2.63;;;;;;;6.19;100.00;100895.88;677904;29;1009;-80
2022/05/29 01:51:12;;;;;;;5.85;2.45;;;;;;;6.19;100.00;100895.88;674356;29;1344;-78
2022/05/29 01:51:36;;;;;;;6.63;2.90;;;;;;;6.24;100.00;100894.25;674541;29;1551;-78
2022/05/29 01:52:24;;;;;;;5.10;2.53;;;;;;;6.29;100.00;100887.41;671651;29;1458;-79
2022/05/29 01:52:52;;;;;;;5.03;2.42;;;;;;;6.41;100.00;100894.50;671621;29;1302;-79
2022/05/29 01:53:18;;;;;;;7.97;2.60;;;;;;;6.46;100.00;100890.28;672665;29;4433;-78
2022/05/29 01:53:43;;;;;;;6.47;2.55;;;;;;;6.50;100.00;100888.59;674468;29;1550;-78
2022/05/29 01:54:13;;;;;;;6.63;2.40;;;;;;;6.52;100.00;100886.88;677463;29;1380;-78
2022/05/29 01:54:39;;;;;;;6.22;2.45;;;;;;;6.53;100.00;100892.09;674848;29;1198;-78
2022/05/29 01:55:26;;;;;;;6.03;2.60;;;;;;;6.54;99.83;100885.19;671062;29;1386;-78
2022/05/29 01:55:51;;;;;;;7.22;2.45;;;;;;;6.52;100.00;100889.47;668231;29;1256;-78
2022/05/29 01:56:21;;;;;;;6.85;2.50;;;;;;;6.49;99.67;100890.31;671768;29;5094;-78
2022/05/29 01:56:47;;;;;;;4.93;2.40;;;;;;;6.50;100.00;100884.28;669250;29;1819;-78
2022/05/29 01:57:16;;;;;;;5.38;2.33;;;;;;;6.50;100.00;100880.81;669938;29;1167;-78
2022/05/29 01:57:40;;;;;;;6.43;2.78;;;;;;;6.50;100.00;100886.00;670636;29;1258;-78
2022/05/29 01:58:09;;;;;;;5.55;2.47;;;;;;;6.50;99.92;100886.00;671075;29;1598;-78
2022/05/29 01:58:45;;;;;;;7.28;2.60;;;;;;;6.41;100.00;100885.00;675130;29;961;-78
2022/05/29 01:59:20;;;;;;;6.95;2.60;;;;;;;6.37;100.00;100884.91;677273;28;4316;-78
2022/05/29 01:59:57;;;;;;;5.40;2.63;;;;;;;6.33;100.00;100881.41;674966;29;1357;-78
2022/05/29 02:00:20;;;;;;;5.05;2.40;;;;;;;6.32;100.00;100887.44;674530;29;1477;-79
2022/05/29 02:00:43;;;;;;;6.05;2.40;;;;;;;6.31;100.00;100885.69;673905;29;1332;-78
2022/05/29 02:01:08;;;;;;;7.45;2.60;;;;;;;6.29;100.00;100882.22;674202;29;1103;-78
2022/05/29 02:01:39;;;;;;;6.88;3.10;;;;;;;6.27;100.00;100878.69;675375;29;1366;-79
2022/05/29 02:02:07;;;;;;;5.70;2.40;;;;;;;6.30;100.00;100879.63;676009;29;4345;-79
2022/05/29 02:02:41;;;;;;;5.70;2.47;;;;;;;6.32;100.00;100879.66;673829;29;1244;-78
2022/05/29 02:03:09;;;;;;;6.82;2.40;;;;;;;6.35;100.00;100876.25;672482;29;1091;-79
2022/05/29 02:03:34;;;;;;;8.05;2.60;;;;;;;6.37;100.00;100879.72;672289;29;1750;-78
2022/05/29 02:03:58;;;;;;;6.63;2.33;;;;;;;6.39;100.00;100878.91;669575;29;1313;-78
2022/05/29 02:04:23;;;;;;;5.68;2.40;;;;;;;6.41;100.00;100881.53;669299;29;1552;-78
2022/05/29 02:04:47;;;;;;;5.25;2.40;;;;;;;6.44;99.47;100877.25;672318;29;1283;-78
2022/05/29 02:05:11;;;;;;;6.43;2.40;;;;;;;6.48;99.60;100878.19;674363;29;4382;-78
2022/05/29 02:05:42;;;;;;;6.00;2.53;;;;;;;6.51;99.69;100879.94;674778;29;1653;-78
2022/05/29 02:06:12;;;;;;;5.35;2.25;;;;;;;6.55;98.62;100876.53;677551;29;1387;-78
2022/05/29 02:08:14;;;;;;;5.35;2.50;;;;;;;6.47;100.00;100879.91;677835;28;4343;-79
2022/05/29 02:08:51;;;;;;;7.53;2.70;;;;;;;6.45;100.00;100873.81;680052;29;1922;-78
2022/05/29 02:09:12;;;;;;;6.03;2.50;;;;;;;6.47;99.19;100876.44;678852;29;1521;-78
2022/05/29 02:09:38;;;;;;;5.13;2.60;;;;;;;6.51;99.95;100877.34;675968;29;1288;-78
2022/05/29 02:10:19;;;;;;;4.90;2.40;;;;;;;6.43;100.00;100875.50;674354;29;1313;-78